createdAt,value
2023-11-15T00:00:12.780Z,99674.63
2023-11-15T00:02:40.563Z,99689.63
2023-11-15T00:05:08.627Z,99692.34
2023-11-15T00:07:35.886Z,99686.91
2023-11-15T00:10:05.069Z,99710.69
2023-11-15T00:12:35.139Z,99700.53
2023-11-15T00:15:02.390Z,99691.03
2023-11-15T00:17:32.032Z,99685.31
2023-11-15T00:20:04.948Z,99678.19
2023-11-15T00:22:32.737Z,99679.66
2023-11-15T00:25:00.284Z,99713.47
2023-11-15T00:27:30.850Z,99737.81
2023-11-15T00:29:58.551Z,99740.19
2023-11-15T00:32:25.749Z,99737.00
2023-11-15T00:34:52.918Z,99751.97
2023-11-15T00:37:20.379Z,99750.94
2023-11-15T00:39:47.651Z,99756.13
2023-11-15T00:42:17.600Z,99751.47
2023-11-15T00:44:45.756Z,99761.06
2023-11-15T00:47:14.732Z,99755.13
2023-11-15T00:49:45.165Z,99745.66
2023-11-15T00:52:15.051Z,99714.19
2023-11-15T00:54:42.634Z,99704.25
2023-11-15T00:57:11.180Z,99717.50
2023-11-15T00:59:39.201Z,99711.91
2023-11-15T01:02:07.546Z,99685.81
2023-11-15T01:04:35.206Z,99670.28
2023-11-15T01:07:05.155Z,99671.00
2023-11-15T01:09:35.275Z,99687.91
2023-11-15T01:12:08.434Z,99683.47
2023-11-15T01:14:35.913Z,99685.91
2023-11-15T01:17:04.284Z,99685.97
2023-11-15T01:19:31.886Z,99680.81
2023-11-15T01:21:59.646Z,99689.16
2023-11-15T01:24:28.690Z,99693.94
2023-11-15T01:26:56.779Z,99696.66
2023-11-15T01:29:23.955Z,99699.25
2023-11-15T01:31:51.948Z,99714.34
2023-11-15T01:34:24.750Z,99723.81
2023-11-15T01:36:52.201Z,99727.88
2023-11-15T01:39:22.009Z,99725.59
2023-11-15T01:41:50.863Z,99743.25
2023-11-15T01:44:20.214Z,99740.59
2023-11-15T01:46:50.102Z,99729.34
2023-11-15T01:49:18.217Z,99729.34
2023-11-15T01:51:51.210Z,99726.22
2023-11-15T01:54:19.916Z,99711.06
2023-11-15T01:56:47.477Z,99700.66
2023-11-15T01:59:15.836Z,99684.22
2023-11-15T02:01:45.524Z,99687.59
2023-11-15T02:04:15.159Z,99699.56
2023-11-15T02:06:47.481Z,99703.28
2023-11-15T02:09:15.654Z,99703.72
2023-11-15T02:11:45.315Z,99701.13
2023-11-15T02:14:13.123Z,99702.84
2023-11-15T02:16:45.851Z,99693.28
2023-11-15T02:19:15.667Z,99691.81
2023-11-15T02:21:43.209Z,99683.00
2023-11-15T02:24:11.449Z,99679.25
2023-11-15T02:26:47.329Z,99676.88
2023-11-15T02:29:14.786Z,99682.06
2023-11-15T02:31:41.933Z,99653.06
2023-11-15T02:34:10.321Z,99658.13
2023-11-15T02:36:51.746Z,99657.81
2023-11-15T02:39:19.043Z,99633.88
2023-11-15T02:41:48.656Z,99648.66
2023-11-15T02:44:15.882Z,99626.63
2023-11-15T02:46:43.818Z,99644.75
2023-11-15T02:49:11.269Z,99660.72
2023-11-15T02:51:39.132Z,99624.69
2023-11-15T02:54:06.818Z,99668.03
2023-11-15T02:56:34.825Z,99643.75
2023-11-15T02:59:02.046Z,99643.63
2023-11-15T03:01:29.704Z,99653.88
2023-11-15T03:03:57.358Z,99657.56
2023-11-15T03:06:26.721Z,99665.87
2023-11-15T03:08:55.574Z,99654.62
2023-11-15T03:11:23.870Z,99647.75
2023-11-15T03:13:51.524Z,99646.78
2023-11-15T03:16:18.715Z,99636.31
2023-11-15T03:18:48.619Z,99646.44
2023-11-15T03:21:15.775Z,99634.25
2023-11-15T03:23:42.898Z,99642.63
2023-11-15T03:26:11.008Z,99668.34
2023-11-15T03:28:38.623Z,99667.22
2023-11-15T03:31:07.154Z,99681.50
2023-11-15T03:33:35.662Z,99676.94
2023-11-15T03:36:03.090Z,99675.66
2023-11-15T03:38:31.737Z,99682.13
2023-11-15T03:40:59.187Z,99666.31
2023-11-15T03:43:26.926Z,99666.06
2023-11-15T03:45:55.798Z,99667.97
2023-11-15T03:48:24.469Z,99686.03
2023-11-15T03:50:54.630Z,99675.22
2023-11-15T03:53:22.897Z,99666.34
2023-11-15T03:55:54.050Z,99672.47
2023-11-15T03:58:24.272Z,99660.44
2023-11-15T04:00:51.757Z,99656.72
2023-11-15T04:03:23.260Z,99664.97
2023-11-15T04:05:51.004Z,99670.25
2023-11-15T04:08:18.925Z,99675.31
2023-11-15T04:10:49.689Z,99668.28
2023-11-15T04:13:18.827Z,99679.13
2023-11-15T04:15:46.309Z,99679.75
2023-11-15T04:18:13.523Z,99673.94
2023-11-15T04:20:41.967Z,99669.41
2023-11-15T04:23:15.430Z,99671.72
2023-11-15T04:25:42.645Z,99662.09
2023-11-15T04:28:10.050Z,99667.34
2023-11-15T04:30:37.187Z,99661.91
2023-11-15T04:33:04.864Z,99662.75
2023-11-15T04:35:32.301Z,99654.50
2023-11-15T04:38:00.230Z,99658.41
2023-11-15T04:40:28.025Z,99657.19
2023-11-15T04:42:55.461Z,99648.59
2023-11-15T04:45:22.596Z,99652.09
2023-11-15T04:47:49.851Z,99659.44
2023-11-15T04:50:17.420Z,99668.38
2023-11-15T04:52:44.622Z,99671.81
2023-11-15T04:55:12.577Z,99668.56
2023-11-15T04:57:40.503Z,99671.44
2023-11-15T05:00:12.085Z,99670.41
2023-11-15T05:02:59.518Z,99671.25
2023-11-15T05:05:30.636Z,99659.13
2023-11-15T05:07:58.817Z,99656.34
2023-11-15T05:10:27.143Z,99654.78
2023-11-15T05:12:54.369Z,99648.59
2023-11-15T05:15:21.825Z,99658.84
2023-11-15T05:17:49.009Z,99660.47
2023-11-15T05:20:20.215Z,99649.69
2023-11-15T05:22:56.316Z,99664.13
2023-11-15T05:25:24.517Z,99671.44
2023-11-15T05:27:52.522Z,99667.63
2023-11-15T05:30:19.779Z,99664.06
2023-11-15T05:32:48.682Z,99669.84
2023-11-15T05:35:17.130Z,99675.41
2023-11-15T05:37:47.015Z,99685.59
2023-11-15T05:40:14.319Z,99662.28
2023-11-15T05:42:42.873Z,99677.00
2023-11-15T05:45:11.952Z,99669.84
2023-11-15T05:47:41.083Z,99677.22
2023-11-15T05:50:11.228Z,99670.19
2023-11-15T05:52:39.247Z,99672.13
2023-11-15T05:55:08.435Z,99677.22
2023-11-15T05:57:35.875Z,99685.38
2023-11-15T06:00:31.528Z,99677.25
2023-11-15T06:02:59.151Z,99679.69
2023-11-15T06:05:26.466Z,99682.25
2023-11-15T06:07:53.628Z,99680.66
2023-11-15T06:10:21.029Z,99675.69
2023-11-15T06:12:48.235Z,99677.00
2023-11-15T06:15:15.716Z,99669.50
2023-11-15T06:17:44.813Z,99671.34
2023-11-15T06:20:12.516Z,99677.44
2023-11-15T06:22:39.980Z,99672.53
2023-11-15T06:25:08.603Z,99681.78
2023-11-15T06:27:36.853Z,99688.25
2023-11-15T06:30:10.402Z,99687.63
2023-11-15T06:32:39.610Z,99681.63
2023-11-15T06:35:07.703Z,99680.50
2023-11-15T06:37:35.669Z,99685.56
2023-11-15T06:40:08.679Z,99693.72
2023-11-15T06:42:37.191Z,99690.66
2023-11-15T06:45:05.539Z,99692.50
2023-11-15T06:47:37.406Z,99687.97
2023-11-15T06:50:05.771Z,99689.13
2023-11-15T06:52:39.059Z,99687.09
2023-11-15T06:55:12.854Z,99689.06
2023-11-15T06:57:42.522Z,99679.22
2023-11-15T07:00:12.372Z,99684.56
2023-11-15T07:02:44.098Z,99683.53
2023-11-15T07:05:14.447Z,99683.34
2023-11-15T07:07:42.431Z,99689.59
2023-11-15T07:10:09.931Z,99686.97
2023-11-15T07:12:37.545Z,99688.31
2023-11-15T07:15:05.510Z,99692.84
2023-11-15T07:17:35.597Z,99685.06
2023-11-15T07:20:05.636Z,99699.81
2023-11-15T07:22:37.185Z,99703.75
2023-11-15T07:25:05.298Z,99712.81
2023-11-15T07:27:35.563Z,99716.53
2023-11-15T07:30:02.865Z,99719.53
2023-11-15T07:32:32.191Z,99718.87
2023-11-15T07:34:59.791Z,99710.53
2023-11-15T07:37:26.958Z,99711.97
2023-11-15T07:39:54.462Z,99730.47
2023-11-15T07:42:21.577Z,99724.00
2023-11-15T07:44:49.733Z,99713.88
2023-11-15T07:47:18.601Z,99713.22
2023-11-15T07:49:45.947Z,99715.38
2023-11-15T07:52:14.178Z,99706.78
2023-11-15T07:54:41.587Z,99696.19
2023-11-15T07:57:11.191Z,99708.75
2023-11-15T07:59:39.232Z,99716.59
2023-11-15T08:02:06.811Z,99712.37
2023-11-15T08:04:35.447Z,99711.81
2023-11-15T08:07:02.651Z,99714.91
2023-11-15T08:09:33.656Z,99718.84
2023-11-15T08:12:06.594Z,99718.13
2023-11-15T08:14:34.126Z,99719.56
2023-11-15T08:17:02.458Z,99717.34
2023-11-15T08:19:29.585Z,99739.50
2023-11-15T08:21:57.848Z,99729.44
2023-11-15T08:24:27.640Z,99734.16
2023-11-15T08:26:56.067Z,99744.13
2023-11-15T08:29:23.443Z,99750.06
2023-11-15T08:31:52.334Z,99748.78
2023-11-15T08:34:25.589Z,99755.19
2023-11-15T08:36:54.230Z,99759.94
2023-11-15T08:39:23.763Z,99764.19
2023-11-15T08:41:52.318Z,99775.22
2023-11-15T08:44:19.869Z,99807.12
2023-11-15T08:46:49.350Z,99768.47
2023-11-15T08:49:19.460Z,99786.13
2023-11-15T08:51:51.667Z,99778.53
2023-11-15T08:54:19.948Z,99791.75
2023-11-15T08:56:51.483Z,99801.72
2023-11-15T08:59:20.344Z,99841.06
2023-11-15T09:01:48.719Z,99815.59
2023-11-15T09:04:17.511Z,99825.06
2023-11-15T09:06:48.874Z,99822.94
2023-11-15T09:09:18.686Z,99838.81
2023-11-15T09:11:46.705Z,99844.28
2023-11-15T09:14:15.546Z,99853.16
2023-11-15T09:16:45.498Z,99862.97
2023-11-15T09:19:18.558Z,99881.94
2023-11-15T09:21:49.891Z,99857.84
2023-11-15T09:24:23.625Z,99873.75
2023-11-15T09:26:52.570Z,99876.81
2023-11-15T09:29:20.724Z,99856.53
2023-11-15T09:31:48.228Z,99847.25
2023-11-15T09:34:17.692Z,99895.34
2023-11-15T09:36:46.323Z,99883.16
2023-11-15T09:39:17.559Z,99894.44
2023-11-15T09:41:54.446Z,99883.16
2023-11-15T09:44:24.944Z,99888.47
2023-11-15T09:46:58.823Z,99874.50
2023-11-15T09:49:27.495Z,99886.94
2023-11-15T09:51:55.346Z,99878.28
2023-11-15T09:54:24.533Z,99884.22
2023-11-15T09:56:53.050Z,99887.66
2023-11-15T09:59:20.631Z,99908.31
2023-11-15T10:01:50.481Z,99906.72
2023-11-15T10:04:29.200Z,99893.31
2023-11-15T10:07:03.784Z,99902.31
2023-11-15T10:09:36.384Z,99889.28
2023-11-15T10:12:05.158Z,99888.47
2023-11-15T10:14:34.232Z,99890.22
2023-11-15T10:17:04.575Z,99889.38
2023-11-15T10:19:32.814Z,99897.94
2023-11-15T10:22:02.127Z,99905.75
2023-11-15T10:24:31.813Z,99922.34
2023-11-15T10:27:07.345Z,99926.63
2023-11-15T10:29:39.100Z,99919.66
2023-11-15T10:32:07.525Z,99926.63
2023-11-15T10:34:48.526Z,99934.00
2023-11-15T10:37:17.683Z,99941.31
2023-11-15T10:39:47.836Z,99947.91
2023-11-15T10:42:19.169Z,99945.91
2023-11-15T10:44:49.243Z,99955.87
2023-11-15T10:47:23.805Z,99947.13
2023-11-15T10:49:53.429Z,99963.81
2023-11-15T10:52:23.310Z,99951.94
2023-11-15T10:54:58.781Z,99968.53
2023-11-15T10:57:28.972Z,99960.72
2023-11-15T10:59:59.139Z,99954.53
2023-11-15T11:02:30.797Z,99951.03
2023-11-15T11:04:58.834Z,99970.53
2023-11-15T11:07:31.634Z,99954.91
2023-11-15T11:10:23.010Z,99960.72
2023-11-15T11:12:50.671Z,99972.78
2023-11-15T11:15:18.801Z,99962.37
2023-11-15T11:17:49.591Z,99967.81
2023-11-15T11:20:28.216Z,99959.75
2023-11-15T11:23:24.930Z,99966.03
2023-11-15T11:25:54.065Z,99975.31
2023-11-15T11:28:25.162Z,99971.03
2023-11-15T11:31:17.019Z,99974.97
2023-11-15T11:34:13.233Z,99978.59
2023-11-15T11:36:51.629Z,99965.59
2023-11-15T11:39:25.301Z,99972.50
2023-11-15T11:41:55.816Z,99964.28
2023-11-15T11:44:26.572Z,99963.37
2023-11-15T11:47:03.510Z,99958.25
2023-11-15T11:49:51.083Z,99966.81
2023-11-15T11:52:21.706Z,99965.75
2023-11-15T11:54:53.094Z,99971.78
2023-11-15T11:57:27.026Z,99974.78
2023-11-15T12:00:13.379Z,99972.53
2023-11-15T12:02:45.299Z,99976.44
2023-11-15T12:05:14.484Z,99974.44
2023-11-15T12:07:47.828Z,99971.59
2023-11-15T12:10:17.115Z,99981.78
2023-11-15T12:13:13.922Z,99993.37
2023-11-15T12:15:41.772Z,99998.28
2023-11-15T12:18:11.130Z,99993.41
2023-11-15T12:20:42.643Z,99996.41
2023-11-15T12:23:13.419Z,99999.84
2023-11-15T12:25:54.149Z,100002.91
2023-11-15T12:28:26.857Z,100000.75
2023-11-15T12:30:56.249Z,99998.03
2023-11-15T12:33:27.016Z,100006.84
2023-11-15T12:35:55.650Z,100007.31
2023-11-15T12:38:24.866Z,100012.31
2023-11-15T12:41:07.253Z,100023.97
2023-11-15T12:43:35.674Z,100004.97
2023-11-15T12:46:16.001Z,100018.69
2023-11-15T12:48:48.766Z,100037.34
2023-11-15T12:51:18.869Z,100022.72
2023-11-15T12:53:46.948Z,100026.03
2023-11-15T12:56:18.685Z,100032.41
2023-11-15T12:58:49.239Z,100028.84
2023-11-15T13:01:19.265Z,100035.97
2023-11-15T13:03:48.223Z,100049.44
2023-11-15T13:06:20.266Z,100042.66
2023-11-15T13:08:52.770Z,100038.28
2023-11-15T13:11:23.446Z,100031.16
2023-11-15T13:13:51.928Z,100040.75
2023-11-15T13:16:21.362Z,100041.09
2023-11-15T13:18:50.437Z,100044.31
2023-11-15T13:21:19.992Z,100039.63
2023-11-15T13:23:48.865Z,100042.03
2023-11-15T13:26:16.801Z,100046.09
2023-11-15T13:28:46.441Z,100052.56
2023-11-15T13:31:20.948Z,100054.53
2023-11-15T13:33:49.710Z,100059.88
2023-11-15T13:36:24.577Z,100066.69
2023-11-15T13:38:53.573Z,100076.88
2023-11-15T13:41:24.806Z,100077.50
2023-11-15T13:43:54.171Z,100078.34
2023-11-15T13:46:25.382Z,100085.81
2023-11-15T13:48:54.918Z,100094.00
2023-11-15T13:51:23.598Z,100088.81
2023-11-15T13:53:51.644Z,100085.97
2023-11-15T13:56:27.464Z,100098.28
2023-11-15T13:58:54.782Z,100093.91
2023-11-15T14:01:22.383Z,100099.44
2023-11-15T14:03:49.964Z,100108.22
2023-11-15T14:06:18.059Z,100109.16
2023-11-15T14:08:55.652Z,100109.88
2023-11-15T14:11:30.570Z,100127.19
2023-11-15T14:13:58.422Z,100128.16
2023-11-15T14:16:26.924Z,100133.88
2023-11-15T14:18:55.933Z,100135.41
2023-11-15T14:21:25.606Z,100140.16
2023-11-15T14:23:53.024Z,100146.81
2023-11-15T14:26:22.092Z,100144.97
2023-11-15T14:28:52.197Z,100146.09
2023-11-15T14:31:22.674Z,100143.47
2023-11-15T14:33:52.743Z,100148.91
2023-11-15T14:36:21.765Z,100151.31
2023-11-15T14:38:53.161Z,100155.91
2023-11-15T14:41:22.966Z,100154.12
2023-11-15T14:43:51.348Z,100162.06
2023-11-15T14:46:24.496Z,100164.47
2023-11-15T14:48:53.625Z,100173.69
2023-11-15T14:51:21.626Z,100177.00
2023-11-15T14:53:56.989Z,100183.34
2023-11-15T14:56:29.552Z,100186.06
2023-11-15T14:59:00.443Z,100189.81
2023-11-15T15:01:29.487Z,100189.41
2023-11-15T15:03:57.854Z,100195.03
2023-11-15T15:06:25.600Z,100190.03
2023-11-15T15:08:53.328Z,100192.97
2023-11-15T15:11:20.999Z,100200.19
2023-11-15T15:13:48.249Z,100198.31
2023-11-15T15:16:17.817Z,100201.03
2023-11-15T15:18:45.196Z,100196.84
2023-11-15T15:21:12.490Z,100204.66
2023-11-15T15:23:42.604Z,100206.56
2023-11-15T15:26:13.779Z,100210.00
2023-11-15T15:28:42.275Z,100212.09
2023-11-15T15:31:09.631Z,100213.44
2023-11-15T15:33:39.602Z,100232.44
2023-11-15T15:36:11.591Z,100216.97
2023-11-15T15:38:38.829Z,100221.25
2023-11-15T15:41:10.951Z,100219.69
2023-11-15T15:43:41.135Z,100229.69
2023-11-15T15:46:10.474Z,100225.31
2023-11-15T15:48:37.863Z,100228.25
2023-11-15T15:51:05.848Z,100232.41
2023-11-15T15:53:33.931Z,100236.28
2023-11-15T15:56:01.107Z,100244.00
2023-11-15T15:58:31.732Z,100244.94
2023-11-15T16:00:59.451Z,100246.81
2023-11-15T16:03:27.898Z,100246.31
2023-11-15T16:05:57.195Z,100253.19
2023-11-15T16:08:24.585Z,100256.84
2023-11-15T16:10:53.695Z,100259.03
2023-11-15T16:13:20.936Z,100260.28
2023-11-15T16:15:49.757Z,100263.22
2023-11-15T16:18:18.552Z,100263.75
2023-11-15T16:20:48.145Z,100263.75
2023-11-15T16:23:15.762Z,100270.75
2023-11-15T16:25:45.189Z,100280.13
2023-11-15T16:28:15.149Z,100274.78
2023-11-15T16:30:42.761Z,100275.84
2023-11-15T16:33:12.616Z,100277.63
2023-11-15T16:35:40.649Z,100280.22
2023-11-15T16:38:09.020Z,100296.72
2023-11-15T16:40:39.306Z,100286.06
2023-11-15T16:43:08.181Z,100297.53
2023-11-15T16:45:37.415Z,100298.37
2023-11-15T16:48:04.953Z,100309.62
2023-11-15T16:50:33.018Z,100300.03
2023-11-15T16:53:02.109Z,100304.41
2023-11-15T16:55:31.069Z,100306.31
2023-11-15T16:57:58.540Z,100310.03
2023-11-15T17:00:26.939Z,100312.53
2023-11-15T17:03:05.723Z,100318.66
2023-11-15T17:05:33.338Z,100323.59
2023-11-15T17:08:01.575Z,100324.81
2023-11-15T17:10:30.329Z,100327.25
2023-11-15T17:13:00.888Z,100334.72
2023-11-15T17:15:27.996Z,100326.69
2023-11-15T17:17:56.197Z,100329.19
2023-11-15T17:20:27.653Z,100332.09
2023-11-15T17:22:54.846Z,100335.22
2023-11-15T17:25:23.524Z,100341.25
2023-11-15T17:27:52.625Z,100337.94
2023-11-15T17:30:22.877Z,100347.41
2023-11-15T17:32:51.390Z,100353.47
2023-11-15T17:35:19.196Z,100352.00
2023-11-15T17:37:46.882Z,100363.03
2023-11-15T17:40:16.319Z,100370.31
2023-11-15T17:42:44.221Z,100375.75
2023-11-15T17:45:13.675Z,100376.13
2023-11-15T17:47:42.800Z,100385.16
2023-11-15T17:50:11.377Z,100394.13
2023-11-15T17:52:41.578Z,100395.88
2023-11-15T17:55:15.347Z,100393.91
2023-11-15T17:57:44.935Z,100402.41
2023-11-15T18:00:14.325Z,100394.25
2023-11-15T18:02:42.925Z,100394.91
2023-11-15T18:05:13.685Z,100385.22
2023-11-15T18:07:41.958Z,100384.53
2023-11-15T18:10:14.961Z,100385.56
2023-11-15T18:12:43.383Z,100393.03
2023-11-15T18:15:17.195Z,100396.56
2023-11-15T18:17:44.641Z,100400.94
2023-11-15T18:20:16.669Z,100402.06
2023-11-15T18:22:44.457Z,100410.44
2023-11-15T18:25:18.178Z,100414.97
2023-11-15T18:27:48.592Z,100410.34
2023-11-15T18:30:17.736Z,100416.00
2023-11-15T18:32:47.395Z,100416.75
2023-11-15T18:35:18.827Z,100421.38
2023-11-15T18:37:46.339Z,100418.78
2023-11-15T18:40:17.927Z,100431.69
2023-11-15T18:42:46.050Z,100431.69
2023-11-15T18:45:13.456Z,100434.31
2023-11-15T18:47:42.138Z,100432.63
2023-11-15T18:50:13.318Z,100438.97
2023-11-15T18:52:44.907Z,100450.78
2023-11-15T18:55:15.082Z,100447.78
2023-11-15T18:57:43.379Z,100460.16
2023-11-15T19:00:19.240Z,100462.78
2023-11-15T19:02:52.630Z,100449.44
2023-11-15T19:05:19.966Z,100453.56
2023-11-15T19:07:47.448Z,100454.59
2023-11-15T19:10:20.307Z,100459.69
2023-11-15T19:12:50.129Z,100463.97
2023-11-15T19:15:17.557Z,100457.34
2023-11-15T19:17:51.543Z,100459.03
2023-11-15T19:20:21.234Z,100463.38
2023-11-15T19:22:49.457Z,100465.06
2023-11-15T19:25:18.720Z,100460.97
2023-11-15T19:27:46.654Z,100469.06
2023-11-15T19:30:16.187Z,100468.22
2023-11-15T19:32:46.648Z,100476.19
2023-11-15T19:35:16.324Z,100478.72
2023-11-15T19:37:44.978Z,100477.69
2023-11-15T19:40:12.764Z,100470.81
2023-11-15T19:42:40.340Z,100469.25
2023-11-15T19:45:09.260Z,100476.94
2023-11-15T19:47:58.783Z,100477.81
2023-11-15T19:50:26.715Z,100472.06
2023-11-15T19:52:56.878Z,100484.87
2023-11-15T19:55:32.111Z,100489.50
2023-11-15T19:57:59.939Z,100491.13
2023-11-15T20:00:27.189Z,100488.78
2023-11-15T20:02:54.891Z,100498.81
2023-11-15T20:05:23.654Z,100497.31
2023-11-15T20:07:50.831Z,100499.19
2023-11-15T20:10:19.978Z,100497.16
2023-11-15T20:12:47.745Z,100496.91
2023-11-15T20:15:15.554Z,100491.88
2023-11-15T20:17:46.176Z,100502.16
2023-11-15T20:20:16.347Z,100501.47
2023-11-15T20:23:03.524Z,100506.09
2023-11-15T20:25:33.020Z,100502.94
2023-11-15T20:28:00.553Z,100509.81
2023-11-15T20:30:29.642Z,100509.97
2023-11-15T20:32:57.405Z,100496.12
2023-11-15T20:35:25.790Z,100502.31
2023-11-15T20:38:03.879Z,100499.72
2023-11-15T20:40:31.382Z,100508.09
2023-11-15T20:42:58.555Z,100504.50
2023-11-15T20:45:25.865Z,100498.53
2023-11-15T20:48:01.423Z,100507.50
2023-11-15T20:50:28.970Z,100505.66
2023-11-15T20:52:56.729Z,100504.28
2023-11-15T20:55:27.188Z,100511.25
2023-11-15T20:58:00.005Z,100521.44
2023-11-15T21:00:28.175Z,100524.78
2023-11-15T21:02:57.371Z,100531.75
2023-11-15T21:05:26.265Z,100522.28
2023-11-15T21:07:54.981Z,100531.59
2023-11-15T21:10:22.112Z,100535.47
2023-11-15T21:12:49.229Z,100530.28
2023-11-15T21:15:16.811Z,100522.06
2023-11-15T21:17:45.682Z,100528.34
2023-11-15T21:20:14.617Z,100537.56
2023-11-15T21:22:45.943Z,100533.22
2023-11-15T21:25:14.128Z,100527.84
2023-11-15T21:27:43.070Z,100529.34
2023-11-15T21:30:11.739Z,100527.84
2023-11-15T21:32:41.401Z,100531.00
2023-11-15T21:35:10.583Z,100533.19
2023-11-15T21:37:45.629Z,100530.19
2023-11-15T21:40:16.257Z,100539.88
2023-11-15T21:42:45.689Z,100546.69
2023-11-15T21:45:18.107Z,100543.59
2023-11-15T21:47:46.063Z,100541.94
2023-11-15T21:50:16.316Z,100541.94
2023-11-15T21:52:50.658Z,100543.62
2023-11-15T21:55:18.366Z,100544.25
2023-11-15T21:57:47.007Z,100546.25
2023-11-15T22:00:17.047Z,100547.22
2023-11-15T22:02:44.846Z,100547.53
2023-11-15T22:05:12.051Z,100546.53
2023-11-15T22:07:40.003Z,100536.13
2023-11-15T22:10:13.723Z,100551.91
2023-11-15T22:12:41.050Z,100545.34
2023-11-15T22:15:20.080Z,100550.75
2023-11-15T22:17:49.093Z,100550.38
2023-11-15T22:20:16.787Z,100538.81
2023-11-15T22:22:45.735Z,100547.03
2023-11-15T22:25:20.689Z,100557.69
2023-11-15T22:27:48.188Z,100559.75
2023-11-15T22:30:16.055Z,100559.97
2023-11-15T22:32:43.342Z,100567.25
2023-11-15T22:35:12.771Z,100563.59
2023-11-15T22:37:39.940Z,100577.78
2023-11-15T22:40:07.553Z,100584.03
2023-11-15T22:42:35.055Z,100578.84
2023-11-15T22:45:03.162Z,100588.84
2023-11-15T22:47:30.509Z,100592.84
2023-11-15T22:49:59.636Z,100599.13
2023-11-15T22:52:27.338Z,100603.37
2023-11-15T22:54:54.481Z,100593.56
2023-11-15T22:57:22.093Z,100601.38
2023-11-15T22:59:52.256Z,100600.63
2023-11-15T23:02:20.338Z,100601.34
2023-11-15T23:04:48.075Z,100603.22
2023-11-15T23:07:21.476Z,100605.06
2023-11-15T23:09:50.344Z,100610.88
2023-11-15T23:12:24.135Z,100602.09
2023-11-15T23:14:51.708Z,100609.38
2023-11-15T23:17:19.492Z,100611.66
2023-11-15T23:19:50.090Z,100599.22
2023-11-15T23:22:17.529Z,100607.38
2023-11-15T23:24:44.660Z,100617.09
2023-11-15T23:27:11.859Z,100612.72
2023-11-15T23:29:39.428Z,100619.06
2023-11-15T23:32:06.927Z,100612.19
2023-11-15T23:34:34.137Z,100613.13
2023-11-15T23:37:01.578Z,100611.66
2023-11-15T23:39:28.823Z,100615.09
2023-11-15T23:41:56.057Z,100606.41
2023-11-15T23:44:23.729Z,100615.56
2023-11-15T23:46:52.951Z,100601.66
2023-11-15T23:49:22.199Z,100602.34
2023-11-15T23:51:49.747Z,100606.31
2023-11-15T23:54:19.039Z,100607.28
2023-11-15T23:56:46.672Z,100605.47
2023-11-15T23:59:16.026Z,100610.50
